Weather History for Fort Drum, NY

Change the Weather History Date:

Sunday, November 17, 2013

  Actual Average Record
Temperature  
Mean Temperature 52 °F -  
Max Temperature 57 °F 42 °F 60 °F (2006)
Min Temperature 46 °F 27 °F 17 °F (1999)
Degree Days  
Heating Degree Days 14    
Growing Degree Days 2 (Base 50)    
Moisture  
Dew Point 51 °F    
Average Humidity 92    
Maximum Humidity 100    
Minimum Humidity 68    
Precipitation  
Precipitation 0.00 in - - ()
Sea Level Pressure  
Sea Level Pressure 29.76 in    
Wind  
Wind Speed 17 mph (SSE)    
Max Wind Speed 24 mph    
Max Gust Speed 33 mph    
Visibility 10 miles    
Events Rain    
Averages and records for this station are not official NWS values.
T = Trace of Precipitation, MM = Missing Value Source: NWS Daily Summary

Daily Weather History Graph

Daily Weather History Graph

Search for Another Location

Airport:

Trip Planner

Search our weather history database for the weather conditions in past years. The results will help you decide how hot, cold, wet, or windy it might be!

Date:

Astronomy

Nov. 17, 2013 Rise Set
Actual Time 7:00 AM EST 4:34 PM EST
Civil Twilight 6:29 AM EST 5:05 PM EST
Nautical Twilight 5:54 AM EST 5:40 PM EST
Astronomical Twilight 5:20 AM EST 6:15 PM EST
Moon 4:49 PM EST (11/17) 6:52 AM EST (11/17)
Length of Visible Light 10h 36m
Length of Day
9h 33m
Full, 100% of the Moon is Illuminated
Nov 17
Full
Nov 25
Last Quarter
Dec 2
New
Dec 9
First Quarter
Dec 17
Full

Hourly Weather History & Observations

Time (EST) Temp. Windchill Dew Point Humidity Pressure Visibility Wind Dir Wind Speed Gust Speed Precip Events Conditions
12:58 AM 46.0 °F 40.2 °F 36.1 °F 68% 30.09 in 10.0 mi SE 12.7 mph - N/A   Overcast
1:58 AM 47.1 °F - 38.3 °F 71% 30.08 in 10.0 mi SSE 11.5 mph - N/A   Overcast
2:58 AM 48.4 °F - 39.6 °F 72% 30.07 in 10.0 mi SSE 13.8 mph - N/A   Scattered Clouds
3:58 AM 48.0 °F - 39.9 °F 74% 30.03 in 10.0 mi SSE 18.4 mph - N/A   Scattered Clouds
4:58 AM 48.0 °F - 40.3 °F 75% 30.02 in 10.0 mi SSE 16.1 mph - N/A   Mostly Cloudy
5:58 AM 47.7 °F - 40.8 °F 77% 29.98 in 10.0 mi SSE 19.6 mph - N/A   Clear
6:58 AM 47.8 °F - 43.2 °F 84% 29.97 in 10.0 mi SE 16.1 mph - N/A   Overcast
7:58 AM 49.1 °F - 44.8 °F 85% 30.00 in 10.0 mi SSE 12.7 mph - N/A   Mostly Cloudy
8:58 AM 51.4 °F - 47.1 °F 85% 29.98 in 10.0 mi SSE 16.1 mph - N/A   Scattered Clouds
9:58 AM 52.9 °F - 47.7 °F 82% 29.97 in 10.0 mi SSE 18.4 mph - N/A   Scattered Clouds
10:58 AM 55.6 °F - 49.3 °F 79% 29.94 in 10.0 mi SSE 20.7 mph 28.8 mph N/A   Mostly Cloudy
10:59 AM 55.4 °F - 50.0 °F 82% 29.93 in 10.0 mi South 19.6 mph 27.6 mph N/A Rain Light Rain
11:58 AM 53.2 °F - 51.3 °F 93% 29.92 in 10.0 mi SSE 17.3 mph 23.0 mph 0.00 in   Light Drizzle
12:04 PM 53.6 °F - 51.8 °F 94% 29.90 in 10.0 mi SSE 18.4 mph 23.0 mph N/A   Overcast
12:17 PM 53.6 °F - 51.8 °F 94% 29.89 in 10.0 mi South 18.4 mph - N/A Rain Light Rain
12:31 PM 53.6 °F - 51.8 °F 94% 29.89 in 10.0 mi SSE 20.7 mph 26.5 mph N/A   Overcast
12:58 PM 54.3 °F - 51.4 °F 90% 29.88 in 10.0 mi SSE 18.4 mph 25.3 mph 0.00 in   Mostly Cloudy
1:17 PM 55.4 °F - 51.8 °F 88% 29.86 in 10.0 mi SSE 20.7 mph 27.6 mph N/A   Light Drizzle
1:25 PM 55.4 °F - 51.8 °F 88% 29.85 in 10.0 mi SSE 19.6 mph 27.6 mph N/A   Mostly Cloudy
1:58 PM 54.9 °F - 52.2 °F 91% 29.85 in 10.0 mi SSE 23.0 mph 29.9 mph 0.00 in   Mostly Cloudy
2:37 PM 55.4 °F - 51.8 °F 88% 29.83 in 10.0 mi South 19.6 mph 27.6 mph N/A Rain Light Rain
2:47 PM 55.4 °F - 53.6 °F 94% 29.83 in 10.0 mi South 18.4 mph 26.5 mph N/A   Overcast
2:50 PM 55.4 °F - 53.6 °F 94% 29.83 in 10.0 mi SSE 15.0 mph 26.5 mph N/A Rain Light Rain
2:58 PM 54.5 °F - 53.1 °F 95% 29.84 in 10.0 mi South 18.4 mph - 0.00 in Rain Light Rain
3:23 PM 53.6 °F - 53.6 °F 100% 29.82 in 10.0 mi SSE 16.1 mph 24.2 mph N/A Rain Light Rain
3:33 PM 53.6 °F - 53.6 °F 100% 29.82 in 10.0 mi South 16.1 mph - N/A Rain Light Rain
3:46 PM 53.6 °F - 53.6 °F 100% 29.81 in 10.0 mi SSE 15.0 mph - N/A   Overcast
3:49 PM 53.6 °F - 53.6 °F 100% 29.80 in 10.0 mi SSE 13.8 mph - N/A   Light Drizzle
3:58 PM 53.2 °F - 53.2 °F 100% 29.81 in 10.0 mi SSE 16.1 mph - 0.00 in Rain Light Rain
4:03 PM 53.6 °F - 53.6 °F 100% 29.80 in 10.0 mi SSE 15.0 mph - N/A Rain Light Rain
4:17 PM 53.6 °F - 53.6 °F 100% 29.78 in 10.0 mi SSE 17.3 mph - N/A   Overcast
4:58 PM 53.6 °F - 53.6 °F 100% 29.78 in 10.0 mi Variable 5.8 mph - 0.00 in   Overcast
5:56 PM 53.6 °F - 53.6 °F 100% 29.74 in 10.0 mi SE 11.5 mph 19.6 mph N/A   Light Drizzle
5:58 PM 53.6 °F - 53.6 °F 100% 29.75 in 10.0 mi SE 12.7 mph 19.6 mph N/A   Light Drizzle
6:07 PM 53.6 °F - 53.6 °F 100% 29.73 in 10.0 mi SSE 13.8 mph - N/A   Overcast
6:58 PM 56.5 °F - 54.0 °F 91% 29.70 in 10.0 mi SSE 20.7 mph - 0.00 in   Overcast
7:02 PM 57.2 °F - 53.6 °F 88% 29.69 in 10.0 mi SSE 19.6 mph 28.8 mph N/A   Light Drizzle
7:26 PM 55.4 °F - 53.6 °F 94% 29.67 in 10.0 mi SSE 18.4 mph - N/A   Mostly Cloudy
7:30 PM 55.4 °F - 53.6 °F 94% 29.66 in 10.0 mi SSE 16.1 mph - N/A   Light Drizzle
7:48 PM 55.4 °F - 53.6 °F 94% 29.64 in 10.0 mi SSE 18.4 mph 27.6 mph N/A   Scattered Clouds
7:55 PM 55.4 °F - 53.6 °F 94% 29.64 in 10.0 mi SSE 18.4 mph 27.6 mph N/A Rain Light Rain
7:58 PM 55.4 °F - 53.6 °F 94% 29.65 in 10.0 mi SSE 20.7 mph - 0.00 in Rain Light Rain
8:50 PM 55.4 °F - 55.4 °F 100% 29.59 in 10.0 mi SSE 23.0 mph 28.8 mph N/A   Overcast
8:52 PM 55.4 °F - 55.4 °F 100% 29.59 in 10.0 mi SSE 18.4 mph 28.8 mph N/A Rain Light Rain
8:58 PM 54.9 °F - 54.9 °F 100% 29.60 in 10.0 mi SSE 21.9 mph 28.8 mph 0.00 in Rain Light Rain
9:04 PM 55.4 °F - 55.4 °F 100% 29.57 in 10.0 mi SSE 23.0 mph 31.1 mph N/A   Mostly Cloudy
9:10 PM 55.4 °F - 55.4 °F 100% 29.56 in 10.0 mi SSE 23.0 mph 31.1 mph N/A Rain Light Rain
9:21 PM 55.4 °F - 55.4 °F 100% 29.56 in 10.0 mi SSE 21.9 mph 29.9 mph N/A   Mostly Cloudy
9:58 PM 55.8 °F - 54.7 °F 96% 29.54 in 10.0 mi SSE 23.0 mph 28.8 mph 0.00 in   Overcast
10:58 PM 56.5 °F - 54.1 °F 92% 29.46 in 10.0 mi SSE 23.0 mph 33.4 mph N/A   Mostly Cloudy
11:03 PM 57.2 °F - 53.6 °F 88% 29.45 in 10.0 mi SSE 24.2 mph 29.9 mph N/A   Mostly Cloudy
11:18 PM 55.4 °F - 55.4 °F 100% 29.43 in 10.0 mi SSE 20.7 mph 31.1 mph N/A   Overcast
11:23 PM 55.4 °F - 55.4 °F 100% 29.42 in 10.0 mi SSE 20.7 mph 27.6 mph N/A Rain Light Rain
11:40 PM 55.4 °F - 55.4 °F 100% 29.42 in 10.0 mi SSE 19.6 mph 29.9 mph N/A   Mostly Cloudy
11:42 PM 55.4 °F - 55.4 °F 100% 29.42 in 10.0 mi SSE 23.0 mph 28.8 mph N/A Rain Light Rain
11:43 PM 55.4 °F - 55.4 °F 100% 29.42 in 10.0 mi SSE 21.9 mph 28.8 mph N/A   Mostly Cloudy
11:58 PM 55.8 °F - 55.4 °F 99% 29.39 in 9.0 mi SSE 24.2 mph 32.2 mph 0.00 in   Mostly Cloudy